createdAt,value
2022-11-30T00:00:46.538Z,26.80
2022-11-30T00:01:46.737Z,27.00
2022-11-30T00:02:47.047Z,25.90
2022-11-30T00:03:47.052Z,26.50
2022-11-30T00:04:47.451Z,26.40
2022-11-30T00:05:47.388Z,26.70
2022-11-30T00:06:47.583Z,25.80
2022-11-30T00:07:47.758Z,26.70
2022-11-30T00:08:47.916Z,26.70
2022-11-30T00:09:48.079Z,26.10
2022-11-30T00:10:48.264Z,25.90
2022-11-30T00:11:48.454Z,27.10
2022-11-30T00:12:48.601Z,26.20
2022-11-30T00:13:48.761Z,26.50
2022-11-30T00:14:49.029Z,25.90
2022-11-30T00:15:49.141Z,26.00
2022-11-30T00:16:49.364Z,27.10
2022-11-30T00:17:49.490Z,26.60
2022-11-30T00:18:49.670Z,25.70
2022-11-30T00:19:49.832Z,28.00
2022-11-30T00:20:50.000Z,27.00
2022-11-30T00:21:50.212Z,24.70
2022-11-30T00:22:50.351Z,26.50
2022-11-30T00:23:50.513Z,27.10
2022-11-30T00:24:50.692Z,26.90
2022-11-30T00:25:50.854Z,27.50
2022-11-30T00:26:51.069Z,26.60
2022-11-30T00:27:51.180Z,26.60
2022-11-30T00:28:51.358Z,25.30
2022-11-30T00:29:51.526Z,27.80
2022-11-30T00:30:51.751Z,27.30
2022-11-30T00:31:51.884Z,26.00
2022-11-30T00:32:52.058Z,28.00
2022-11-30T00:33:52.245Z,26.40
2022-11-30T00:34:52.404Z,27.00
2022-11-30T00:35:52.602Z,26.70
2022-11-30T00:36:52.772Z,28.00
2022-11-30T00:37:52.940Z,26.60
2022-11-30T00:38:53.109Z,26.80
2022-11-30T00:39:53.292Z,27.20
2022-11-30T00:40:53.499Z,27.90
2022-11-30T00:41:53.619Z,26.90
2022-11-30T00:42:53.798Z,28.00
2022-11-30T00:43:53.959Z,26.50
2022-11-30T00:44:54.140Z,26.80
2022-11-30T00:45:54.347Z,28.60
2022-11-30T00:46:54.469Z,27.10
2022-11-30T00:47:54.671Z,27.90
2022-11-30T00:48:54.801Z,27.30
2022-11-30T00:49:54.977Z,25.50
2022-11-30T00:50:55.191Z,27.30
2022-11-30T00:51:55.340Z,27.20
2022-11-30T00:52:55.505Z,27.30
2022-11-30T00:53:55.685Z,26.90
2022-11-30T00:54:55.865Z,29.20
2022-11-30T00:55:56.059Z,28.20
2022-11-30T00:56:56.248Z,27.30
2022-11-30T00:57:56.391Z,26.60
2022-11-30T00:58:56.563Z,27.80
2022-11-30T00:59:56.744Z,27.00
2022-11-30T01:00:57.018Z,27.30
2022-11-30T01:01:57.078Z,26.50
2022-11-30T01:02:57.251Z,27.40
2022-11-30T01:03:57.405Z,27.00
2022-11-30T01:04:57.594Z,27.80
2022-11-30T01:05:57.854Z,27.40
2022-11-30T01:06:57.934Z,29.00
2022-11-30T01:07:58.206Z,27.10
2022-11-30T01:08:58.285Z,28.60
2022-11-30T01:09:58.454Z,28.90
2022-11-30T01:10:58.634Z,28.10
2022-11-30T01:11:58.796Z,27.30
2022-11-30T01:12:58.975Z,27.20
2022-11-30T01:13:59.136Z,27.30
2022-11-30T01:14:59.320Z,28.20
2022-11-30T01:15:59.566Z,27.40
2022-11-30T01:16:59.694Z,27.30
2022-11-30T01:17:59.846Z,27.00
2022-11-30T01:19:00.019Z,29.40
2022-11-30T01:20:00.189Z,28.90
2022-11-30T01:21:00.377Z,29.30
2022-11-30T01:22:00.554Z,28.70
2022-11-30T01:23:00.717Z,28.10
2022-11-30T01:24:00.892Z,28.70
2022-11-30T01:25:01.102Z,28.70
2022-11-30T01:26:01.226Z,30.10
2022-11-30T01:27:01.407Z,29.10
2022-11-30T01:28:01.581Z,29.40
2022-11-30T01:29:01.758Z,29.50
2022-11-30T01:30:01.949Z,27.80
2022-11-30T01:31:02.177Z,28.60
2022-11-30T01:32:02.283Z,29.00
2022-11-30T01:33:02.455Z,28.90
2022-11-30T01:34:02.620Z,29.50
2022-11-30T01:35:02.814Z,29.90
2022-11-30T01:36:02.969Z,30.80
2022-11-30T01:37:03.175Z,29.10
2022-11-30T01:38:03.327Z,27.40
2022-11-30T01:39:03.511Z,29.60
2022-11-30T01:40:03.684Z,28.70
2022-11-30T01:41:03.866Z,29.70
2022-11-30T01:42:04.037Z,30.10
2022-11-30T01:43:04.214Z,30.50
2022-11-30T01:44:04.393Z,28.90
2022-11-30T01:45:04.554Z,30.90
2022-11-30T01:46:04.782Z,30.30
2022-11-30T01:47:04.958Z,30.50
2022-11-30T01:48:05.088Z,29.60
2022-11-30T01:49:05.273Z,28.70
2022-11-30T01:50:05.434Z,29.90
2022-11-30T01:51:05.653Z,30.10
2022-11-30T01:52:05.784Z,31.30
2022-11-30T01:53:05.947Z,29.90
2022-11-30T01:54:06.111Z,30.50
2022-11-30T01:55:06.307Z,30.20
2022-11-30T01:56:06.495Z,30.50
2022-11-30T01:57:06.666Z,30.70
2022-11-30T01:58:06.866Z,29.10
2022-11-30T01:59:07.020Z,31.50
2022-11-30T02:00:07.167Z,29.60
2022-11-30T02:01:07.349Z,29.30
2022-11-30T02:02:07.558Z,30.30
2022-11-30T02:03:07.693Z,31.60
2022-11-30T02:04:07.885Z,30.10
2022-11-30T02:05:08.040Z,30.80
2022-11-30T02:06:08.199Z,31.40
2022-11-30T02:07:08.492Z,29.80
2022-11-30T02:08:08.715Z,31.00
2022-11-30T02:09:08.729Z,30.70
2022-11-30T02:10:08.899Z,29.20
2022-11-30T02:11:09.072Z,31.70
2022-11-30T02:12:09.233Z,30.40
2022-11-30T02:13:09.474Z,30.80
2022-11-30T02:14:09.559Z,29.70
2022-11-30T02:15:09.732Z,30.60
2022-11-30T02:16:09.963Z,31.70
2022-11-30T02:17:10.124Z,30.90
2022-11-30T02:18:10.250Z,30.00
2022-11-30T02:19:10.460Z,30.00
2022-11-30T02:20:10.603Z,32.00
2022-11-30T02:21:10.796Z,32.50
2022-11-30T02:22:10.955Z,31.50
2022-11-30T02:23:11.132Z,30.90
2022-11-30T02:24:11.311Z,29.80
2022-11-30T02:25:11.466Z,31.00
2022-11-30T02:26:11.651Z,31.00
2022-11-30T02:27:11.840Z,32.00
2022-11-30T02:28:11.984Z,30.30
2022-11-30T02:29:12.138Z,32.40
2022-11-30T02:30:12.320Z,31.70
2022-11-30T02:31:12.524Z,30.70
2022-11-30T02:32:12.655Z,29.90
2022-11-30T02:33:12.851Z,31.50
2022-11-30T02:34:12.983Z,32.10
2022-11-30T02:35:13.182Z,32.00
2022-11-30T02:36:13.328Z,33.10
2022-11-30T02:37:13.505Z,31.20
2022-11-30T02:38:13.691Z,30.60
2022-11-30T02:39:13.859Z,32.50
2022-11-30T02:40:14.015Z,31.40
2022-11-30T02:41:14.196Z,31.00
2022-11-30T02:42:14.398Z,32.10
2022-11-30T02:43:14.567Z,30.70
2022-11-30T02:44:14.708Z,33.10
2022-11-30T02:45:14.883Z,31.20
2022-11-30T02:46:15.088Z,31.00
2022-11-30T02:47:15.222Z,32.30
2022-11-30T02:48:15.397Z,32.10
2022-11-30T02:49:15.562Z,32.60
2022-11-30T02:50:15.739Z,30.90
2022-11-30T02:51:15.913Z,30.80
2022-11-30T02:52:16.076Z,31.70
2022-11-30T02:53:16.261Z,31.10
2022-11-30T02:54:16.423Z,31.20
2022-11-30T02:55:16.601Z,31.80
2022-11-30T02:56:16.774Z,32.00
2022-11-30T02:57:16.953Z,29.70
2022-11-30T02:58:17.119Z,32.10
2022-11-30T02:59:17.302Z,31.60
2022-11-30T03:00:17.471Z,31.20
2022-11-30T03:01:17.731Z,30.80
2022-11-30T03:02:17.871Z,31.90
2022-11-30T03:03:18.010Z,32.00
2022-11-30T03:04:18.201Z,30.80
2022-11-30T03:05:18.375Z,30.50
2022-11-30T03:06:18.533Z,30.50
2022-11-30T03:07:18.780Z,31.30
2022-11-30T03:08:18.891Z,31.00
2022-11-30T03:09:19.088Z,31.30
2022-11-30T03:10:19.220Z,31.00
2022-11-30T03:11:19.403Z,32.40
2022-11-30T03:12:19.581Z,31.90
2022-11-30T03:13:19.742Z,31.60
2022-11-30T03:14:20.168Z,31.20
2022-11-30T03:15:20.093Z,32.20
2022-11-30T03:16:20.284Z,31.70
2022-11-30T03:17:20.447Z,30.40
2022-11-30T03:18:20.611Z,32.40
2022-11-30T03:19:20.829Z,31.30
2022-11-30T03:20:20.949Z,33.00
2022-11-30T03:21:21.132Z,31.00
2022-11-30T03:22:21.310Z,30.70
2022-11-30T03:24:36.559Z,31.70
2022-11-30T03:25:36.718Z,32.30
2022-11-30T03:26:36.901Z,32.00
2022-11-30T03:27:37.057Z,31.30
2022-11-30T03:28:37.239Z,31.40
2022-11-30T03:29:37.441Z,31.90
2022-11-30T03:30:37.568Z,32.00
2022-11-30T03:31:37.726Z,32.40
2022-11-30T03:32:37.902Z,30.60
2022-11-30T03:33:38.063Z,31.70
2022-11-30T03:34:38.475Z,32.60
2022-11-30T03:35:38.414Z,31.40
2022-11-30T03:36:38.583Z,30.60
2022-11-30T03:37:38.740Z,31.20
2022-11-30T03:38:38.913Z,31.90
2022-11-30T03:39:39.094Z,31.00
2022-11-30T03:40:39.272Z,31.10
2022-11-30T03:41:39.423Z,31.50
2022-11-30T03:42:39.596Z,30.80
2022-11-30T03:43:39.771Z,31.20
2022-11-30T03:44:39.966Z,30.90
2022-11-30T03:45:40.139Z,31.00
2022-11-30T03:46:40.361Z,30.90
2022-11-30T03:47:40.467Z,30.70
2022-11-30T03:48:40.635Z,31.20
2022-11-30T03:49:40.845Z,30.50
2022-11-30T03:50:40.973Z,29.00
2022-11-30T03:51:41.157Z,32.00
2022-11-30T03:52:41.320Z,31.10
2022-11-30T03:53:41.486Z,31.40
2022-11-30T03:54:41.674Z,31.20
2022-11-30T03:55:41.831Z,30.10
2022-11-30T03:56:42.018Z,28.10
2022-11-30T03:57:42.180Z,31.10
2022-11-30T03:58:42.341Z,31.20
2022-11-30T03:59:42.528Z,31.10
2022-11-30T04:00:42.690Z,30.70
2022-11-30T04:01:42.912Z,31.10
2022-11-30T04:02:44.833Z,31.90
2022-11-30T04:03:43.213Z,30.40
2022-11-30T04:04:43.433Z,31.40
2022-11-30T04:05:43.550Z,30.40
2022-11-30T04:06:43.722Z,30.40
2022-11-30T04:07:43.934Z,31.30
2022-11-30T04:08:44.089Z,32.20
2022-11-30T04:09:44.270Z,30.10
2022-11-30T04:10:44.466Z,31.50
2022-11-30T04:11:44.609Z,32.50
2022-11-30T04:12:44.783Z,30.70
2022-11-30T04:13:44.952Z,31.40
2022-11-30T04:14:45.576Z,31.10
2022-11-30T04:15:45.366Z,31.10
2022-11-30T04:16:45.472Z,31.00
2022-11-30T04:17:45.636Z,30.80
2022-11-30T04:18:45.809Z,29.20
2022-11-30T04:19:45.991Z,31.70
2022-11-30T04:20:46.159Z,29.70
2022-11-30T04:21:46.322Z,31.60
2022-11-30T04:22:46.500Z,30.60
2022-11-30T04:23:46.656Z,31.70
2022-11-30T04:24:47.072Z,30.70
2022-11-30T04:25:46.992Z,30.90
2022-11-30T04:26:47.152Z,31.80
2022-11-30T04:27:47.346Z,29.60
2022-11-30T04:28:47.493Z,30.80
2022-11-30T04:29:47.673Z,30.40
2022-11-30T04:30:47.837Z,31.50
2022-11-30T04:31:48.036Z,31.90
2022-11-30T04:32:48.198Z,31.30
2022-11-30T04:33:48.355Z,31.80
2022-11-30T04:34:48.815Z,31.10
2022-11-30T04:35:48.689Z,29.80
2022-11-30T04:36:48.855Z,30.30
2022-11-30T04:37:49.039Z,31.90
2022-11-30T04:38:49.199Z,31.10
2022-11-30T04:39:49.373Z,30.80
2022-11-30T04:40:49.543Z,29.40
2022-11-30T04:41:49.720Z,30.40
2022-11-30T04:42:49.915Z,30.70
2022-11-30T04:43:50.056Z,31.00
2022-11-30T04:44:50.235Z,30.80
2022-11-30T04:45:50.391Z,31.10
2022-11-30T04:46:50.645Z,30.50
2022-11-30T04:47:50.720Z,31.30
2022-11-30T04:48:50.899Z,30.40
2022-11-30T04:49:51.058Z,30.50
2022-11-30T04:50:51.251Z,29.70
2022-11-30T04:51:51.408Z,32.00
2022-11-30T04:52:51.597Z,31.10
2022-11-30T04:53:51.762Z,31.10
2022-11-30T04:54:51.928Z,31.20
2022-11-30T04:55:52.099Z,31.40
2022-11-30T04:56:52.298Z,31.20
2022-11-30T04:57:52.465Z,31.30
2022-11-30T04:58:52.633Z,31.30
2022-11-30T04:59:52.803Z,30.30
2022-11-30T05:00:52.976Z,31.70
2022-11-30T05:01:53.192Z,29.50
2022-11-30T05:02:53.457Z,30.40
2022-11-30T05:03:53.500Z,30.40
2022-11-30T05:04:53.716Z,30.70
2022-11-30T05:05:53.840Z,30.80
2022-11-30T05:06:54.035Z,31.50
2022-11-30T05:07:54.221Z,30.40
2022-11-30T05:08:54.371Z,29.40
2022-11-30T05:09:54.541Z,30.60
2022-11-30T05:10:54.711Z,29.30
2022-11-30T05:11:54.905Z,29.90
2022-11-30T05:12:55.073Z,30.90
2022-11-30T05:13:55.231Z,29.20
2022-11-30T05:14:55.405Z,31.60
2022-11-30T05:15:55.641Z,29.10
2022-11-30T05:16:55.774Z,30.80
2022-11-30T05:17:55.917Z,30.60
2022-11-30T05:18:56.096Z,31.40
2022-11-30T05:19:56.252Z,31.30
2022-11-30T05:20:56.432Z,28.70
2022-11-30T05:21:56.595Z,29.90
2022-11-30T05:22:56.784Z,30.30
2022-11-30T05:23:56.950Z,30.40
2022-11-30T05:24:57.119Z,30.60
2022-11-30T05:25:57.292Z,30.30
2022-11-30T05:26:57.459Z,30.60
2022-11-30T05:27:57.624Z,31.10
2022-11-30T05:28:57.796Z,29.40
2022-11-30T05:29:57.954Z,30.30
2022-11-30T05:30:58.126Z,30.40
2022-11-30T05:31:58.295Z,30.80
2022-11-30T05:32:58.484Z,30.50
2022-11-30T05:33:58.640Z,29.30
2022-11-30T05:34:59.004Z,30.30
2022-11-30T05:35:58.996Z,30.20
2022-11-30T05:36:59.183Z,30.40
2022-11-30T05:37:59.345Z,29.50
2022-11-30T05:38:59.511Z,29.90
2022-11-30T05:39:59.683Z,31.50
2022-11-30T05:40:59.838Z,30.50
2022-11-30T05:42:00.014Z,29.50
2022-11-30T05:43:00.177Z,28.80
2022-11-30T05:44:00.343Z,30.00
2022-11-30T05:45:00.539Z,28.70
2022-11-30T05:46:00.698Z,29.20
2022-11-30T05:47:00.929Z,30.00
2022-11-30T05:48:01.059Z,29.40
2022-11-30T05:49:01.245Z,30.00
2022-11-30T05:50:01.398Z,29.30
2022-11-30T05:51:01.579Z,30.30
2022-11-30T05:52:01.747Z,30.40
2022-11-30T05:53:01.940Z,29.90
2022-11-30T05:54:02.101Z,30.00
2022-11-30T05:55:02.271Z,29.60
2022-11-30T05:56:02.434Z,30.90
2022-11-30T05:57:02.620Z,30.20
2022-11-30T05:58:02.772Z,31.20
2022-11-30T05:59:02.958Z,30.90
2022-11-30T06:00:03.121Z,29.30
2022-11-30T06:01:03.283Z,31.00
2022-11-30T06:02:03.800Z,31.00
2022-11-30T06:03:03.745Z,31.00
2022-11-30T06:04:08.550Z,28.70
2022-11-30T06:05:04.997Z,30.40
2022-11-30T06:06:04.147Z,30.40
2022-11-30T06:07:04.332Z,29.50
2022-11-30T06:08:04.492Z,30.70
2022-11-30T06:09:04.701Z,30.20
2022-11-30T06:10:04.832Z,29.10
2022-11-30T06:11:05.024Z,30.30
2022-11-30T06:12:05.213Z,30.70
2022-11-30T06:13:05.354Z,29.40
2022-11-30T06:14:05.515Z,31.20
2022-11-30T06:15:05.694Z,29.80
2022-11-30T06:16:05.900Z,30.60
2022-11-30T06:17:06.058Z,30.10
2022-11-30T06:18:06.215Z,29.10
2022-11-30T06:19:06.388Z,30.60
2022-11-30T06:20:06.550Z,31.00
2022-11-30T06:21:06.720Z,31.20
2022-11-30T06:22:06.907Z,29.90
2022-11-30T06:23:07.129Z,30.60
2022-11-30T06:24:07.260Z,29.30
2022-11-30T06:25:07.417Z,30.50
2022-11-30T06:26:07.587Z,30.70
2022-11-30T06:27:07.765Z,30.90
2022-11-30T06:28:07.940Z,29.40
2022-11-30T06:29:08.098Z,31.40
2022-11-30T06:30:08.269Z,30.60
2022-11-30T06:31:08.442Z,30.70
2022-11-30T06:32:08.643Z,29.20
2022-11-30T06:33:08.817Z,28.90
2022-11-30T06:34:08.968Z,28.70
2022-11-30T06:35:09.153Z,30.40
2022-11-30T06:36:09.321Z,31.70
2022-11-30T06:37:09.518Z,31.30
2022-11-30T06:38:09.639Z,29.80
2022-11-30T06:39:09.809Z,30.80
2022-11-30T06:40:10.042Z,29.70
2022-11-30T06:41:10.149Z,30.20
2022-11-30T06:42:10.330Z,29.80
2022-11-30T06:43:10.493Z,28.20
2022-11-30T06:44:10.662Z,31.10
2022-11-30T06:45:10.834Z,30.20
2022-11-30T06:46:11.199Z,30.80
2022-11-30T06:47:11.201Z,29.00
2022-11-30T06:48:11.366Z,32.30
2022-11-30T06:49:11.531Z,29.90
2022-11-30T06:50:11.700Z,29.30
2022-11-30T06:51:11.903Z,30.90
2022-11-30T06:52:12.045Z,29.40
2022-11-30T06:53:12.206Z,31.10
2022-11-30T06:54:12.377Z,29.90
2022-11-30T06:55:13.021Z,30.00
2022-11-30T06:56:12.724Z,30.00
2022-11-30T06:57:13.143Z,31.00
2022-11-30T06:58:13.063Z,29.90
2022-11-30T06:59:13.225Z,31.20
2022-11-30T07:00:13.394Z,29.40
2022-11-30T07:01:13.618Z,30.20
2022-11-30T07:02:17.750Z,30.80
2022-11-30T07:03:13.943Z,30.10
2022-11-30T07:04:14.120Z,31.00
2022-11-30T07:05:14.304Z,29.10
2022-11-30T07:06:14.469Z,30.40
2022-11-30T07:07:14.643Z,29.80
2022-11-30T07:08:14.829Z,29.70
2022-11-30T07:09:14.970Z,29.80
2022-11-30T07:10:19.955Z,30.80
2022-11-30T07:11:16.333Z,30.00
2022-11-30T07:12:15.516Z,31.20
2022-11-30T07:13:15.695Z,31.20
2022-11-30T07:14:15.861Z,28.70
2022-11-30T07:15:16.028Z,30.40
2022-11-30T07:16:16.217Z,30.10
2022-11-30T07:17:16.380Z,29.00
2022-11-30T07:18:16.576Z,29.20
2022-11-30T07:19:16.754Z,30.80
2022-11-30T07:20:16.909Z,31.00
2022-11-30T07:21:17.077Z,30.00
2022-11-30T07:22:17.254Z,31.50
2022-11-30T07:23:17.434Z,29.70
2022-11-30T07:24:17.606Z,29.50
2022-11-30T07:25:17.759Z,30.20
2022-11-30T07:26:17.934Z,31.00
2022-11-30T07:27:18.113Z,30.70
2022-11-30T07:28:18.295Z,29.60
2022-11-30T07:29:18.454Z,30.60
2022-11-30T07:30:18.630Z,29.60
2022-11-30T07:31:18.833Z,31.00
2022-11-30T07:32:18.962Z,30.10
2022-11-30T07:33:19.154Z,30.90
2022-11-30T07:34:19.321Z,29.00
2022-11-30T07:35:19.481Z,30.20
2022-11-30T07:36:19.645Z,29.60
2022-11-30T07:37:19.818Z,29.60
2022-11-30T07:38:20.024Z,29.70
2022-11-30T07:39:20.144Z,28.40
2022-11-30T07:40:20.324Z,30.60
2022-11-30T07:41:20.489Z,29.30
2022-11-30T07:42:20.683Z,29.20
2022-11-30T07:43:20.828Z,30.30
2022-11-30T07:44:21.003Z,29.20
2022-11-30T07:45:21.175Z,29.10
2022-11-30T07:46:21.438Z,29.80
2022-11-30T07:47:21.554Z,29.80
2022-11-30T07:48:21.699Z,29.40
2022-11-30T07:49:21.868Z,28.50
2022-11-30T07:50:22.046Z,30.20
2022-11-30T07:51:22.225Z,27.90
2022-11-30T07:52:22.419Z,30.30
2022-11-30T07:53:22.566Z,27.20
2022-11-30T07:54:22.754Z,29.60
2022-11-30T07:55:22.925Z,30.30
2022-11-30T07:56:23.115Z,30.20
2022-11-30T07:57:23.314Z,28.80
2022-11-30T07:58:23.462Z,26.80
2022-11-30T07:59:23.646Z,29.30
2022-11-30T08:00:23.826Z,29.20
2022-11-30T08:01:24.117Z,28.00
2022-11-30T08:02:24.317Z,29.50
2022-11-30T08:03:24.343Z,27.90
2022-11-30T08:04:24.512Z,30.10
2022-11-30T08:05:24.677Z,29.00
2022-11-30T08:06:24.857Z,28.60
2022-11-30T08:07:25.150Z,28.70
2022-11-30T08:08:25.236Z,29.30
2022-11-30T08:09:25.379Z,28.10
2022-11-30T08:10:25.713Z,30.60
2022-11-30T08:11:25.722Z,28.30
2022-11-30T08:12:25.903Z,28.50
2022-11-30T08:13:26.091Z,29.10
2022-11-30T08:14:26.250Z,28.80
2022-11-30T08:15:32.397Z,29.20
2022-11-30T08:16:27.694Z,29.20
2022-11-30T08:17:26.772Z,28.40
2022-11-30T08:18:26.961Z,29.20
2022-11-30T08:19:27.116Z,27.20
2022-11-30T08:20:27.300Z,29.10
2022-11-30T08:21:27.480Z,28.70
2022-11-30T08:22:27.933Z,28.10
2022-11-30T08:23:27.842Z,28.20
2022-11-30T08:24:28.078Z,29.30
2022-11-30T08:25:28.192Z,27.60
2022-11-30T08:26:28.376Z,13.20
2022-11-30T08:27:28.571Z,12.30
2022-11-30T08:28:28.722Z,12.50
2022-11-30T08:29:28.897Z,14.00
2022-11-30T08:30:32.425Z,15.00
2022-11-30T08:31:29.301Z,21.80
2022-11-30T08:32:29.442Z,15.50
2022-11-30T08:33:30.972Z,16.60
2022-11-30T08:34:29.773Z,17.10
2022-11-30T08:35:29.923Z,17.40
2022-11-30T08:36:30.103Z,20.00
2022-11-30T08:37:30.298Z,18.50
2022-11-30T08:38:30.445Z,21.30
2022-11-30T08:39:30.624Z,22.20
2022-11-30T08:40:30.807Z,22.50
2022-11-30T08:41:30.984Z,24.00
2022-11-30T08:42:31.185Z,20.60
2022-11-30T08:43:31.336Z,19.90
2022-11-30T08:44:31.520Z,19.20
2022-11-30T08:45:31.702Z,19.40
2022-11-30T08:47:33.119Z,22.60
2022-11-30T08:48:32.238Z,22.40
2022-11-30T08:49:32.409Z,23.80
2022-11-30T08:50:32.607Z,21.00
2022-11-30T08:51:53.830Z,21.50
2022-11-30T08:52:33.985Z,21.00
2022-11-30T08:53:33.127Z,22.50
2022-11-30T08:54:33.296Z,23.00
2022-11-30T08:55:33.458Z,21.90
2022-11-30T08:56:33.629Z,23.10
2022-11-30T08:57:33.796Z,24.10
2022-11-30T08:58:33.980Z,23.20
2022-11-30T08:59:34.127Z,24.60
2022-11-30T09:00:34.299Z,24.60
2022-11-30T09:01:34.467Z,24.10
2022-11-30T09:02:34.681Z,24.60
2022-11-30T09:03:34.820Z,24.50
2022-11-30T09:04:34.990Z,24.80
2022-11-30T09:05:35.217Z,25.50
2022-11-30T09:06:35.334Z,24.10
2022-11-30T09:07:35.556Z,26.30
2022-11-30T09:08:39.561Z,24.60
2022-11-30T09:09:36.841Z,25.80
2022-11-30T09:10:36.001Z,25.90
2022-11-30T09:11:36.172Z,25.60
2022-11-30T09:12:36.366Z,25.10
2022-11-30T09:13:36.529Z,25.40
2022-11-30T09:14:36.686Z,24.80
2022-11-30T09:15:36.882Z,21.70
2022-11-30T09:16:37.003Z,19.60
2022-11-30T09:17:37.181Z,22.10
2022-11-30T09:18:37.384Z,21.80
2022-11-30T09:19:37.522Z,22.40
2022-11-30T09:20:37.703Z,22.40
2022-11-30T09:21:37.854Z,22.40
2022-11-30T09:22:38.049Z,22.60
2022-11-30T09:23:38.208Z,21.20
2022-11-30T09:25:53.458Z,22.60
2022-11-30T09:26:53.599Z,22.90
2022-11-30T09:27:53.800Z,22.10
2022-11-30T09:28:53.963Z,23.10
2022-11-30T09:29:54.115Z,23.10
2022-11-30T09:30:54.350Z,23.00
2022-11-30T09:31:54.466Z,23.40
2022-11-30T09:32:54.636Z,23.30
2022-11-30T09:33:54.786Z,23.50
2022-11-30T09:34:54.968Z,24.10
2022-11-30T09:35:55.127Z,22.50
2022-11-30T09:36:55.289Z,23.50
2022-11-30T09:37:55.503Z,22.80
2022-11-30T09:38:55.620Z,22.10
2022-11-30T09:39:55.810Z,22.90
2022-11-30T09:40:55.962Z,20.70
2022-11-30T09:41:56.152Z,22.00
2022-11-30T09:42:56.318Z,21.70
2022-11-30T09:43:56.469Z,23.00
2022-11-30T09:44:56.633Z,22.10
2022-11-30T09:45:56.854Z,21.50
2022-11-30T09:46:56.978Z,21.80
2022-11-30T09:47:57.129Z,22.00
2022-11-30T09:48:57.299Z,22.00
2022-11-30T09:49:57.450Z,22.30
2022-11-30T09:50:57.628Z,21.80
2022-11-30T09:51:57.816Z,22.20
2022-11-30T09:52:57.999Z,22.00
2022-11-30T09:53:58.162Z,22.80
2022-11-30T09:54:58.312Z,22.90
2022-11-30T09:55:58.499Z,21.80
2022-11-30T09:56:58.674Z,20.80
2022-11-30T09:57:58.863Z,20.00
2022-11-30T09:58:59.006Z,19.60
2022-11-30T09:59:59.190Z,20.80
2022-11-30T10:01:02.458Z,20.70
2022-11-30T10:02:00.629Z,20.80
2022-11-30T10:02:59.734Z,21.00
2022-11-30T10:03:59.833Z,19.90
2022-11-30T10:05:00.003Z,21.70
2022-11-30T10:06:00.191Z,21.40
2022-11-30T10:07:00.361Z,21.10
2022-11-30T10:08:00.596Z,21.30
2022-11-30T10:09:00.706Z,21.30
2022-11-30T10:10:31.885Z,21.00
2022-11-30T10:11:02.048Z,21.30
2022-11-30T10:12:01.238Z,21.20
2022-11-30T10:13:01.375Z,21.70
2022-11-30T10:14:01.555Z,21.30
2022-11-30T10:15:01.747Z,21.10
2022-11-30T10:16:01.933Z,21.30
2022-11-30T10:17:02.088Z,21.60
2022-11-30T10:18:02.238Z,21.50
2022-11-30T10:19:02.424Z,21.40
2022-11-30T10:20:02.604Z,21.10
2022-11-30T10:21:02.780Z,21.40
2022-11-30T10:22:02.962Z,21.40
2022-11-30T10:23:03.123Z,20.80
2022-11-30T10:24:03.279Z,21.20
2022-11-30T10:25:07.318Z,20.60
2022-11-30T10:26:04.598Z,20.20
2022-11-30T10:27:03.772Z,21.30
2022-11-30T10:28:18.167Z,20.90
2022-11-30T10:29:05.086Z,20.40
2022-11-30T10:30:04.254Z,19.80
2022-11-30T10:31:04.496Z,21.40
2022-11-30T10:32:04.618Z,20.20
2022-11-30T10:33:04.761Z,19.80
2022-11-30T10:34:04.942Z,20.90
2022-11-30T10:35:05.108Z,20.60
2022-11-30T10:36:05.290Z,21.20
2022-11-30T10:37:05.472Z,21.40
2022-11-30T10:38:05.622Z,20.80
2022-11-30T10:39:05.797Z,20.00
2022-11-30T10:40:05.974Z,20.30
2022-11-30T10:41:06.142Z,19.60
2022-11-30T10:42:06.340Z,20.40
2022-11-30T10:43:06.494Z,20.10
2022-11-30T10:44:06.672Z,20.90
2022-11-30T10:45:06.843Z,20.40
2022-11-30T10:46:08.519Z,19.60
2022-11-30T10:47:07.184Z,20.00
2022-11-30T10:48:07.435Z,20.60
2022-11-30T10:49:07.526Z,19.00
2022-11-30T10:50:07.704Z,19.90
2022-11-30T10:51:07.901Z,20.00
2022-11-30T10:52:08.052Z,20.20
2022-11-30T10:53:08.234Z,19.80
2022-11-30T10:54:08.386Z,19.70
2022-11-30T10:55:08.565Z,20.30
2022-11-30T10:56:08.736Z,19.60
2022-11-30T10:57:08.929Z,19.80
2022-11-30T10:58:09.081Z,19.00
2022-11-30T10:59:09.256Z,18.70
2022-11-30T11:00:09.435Z,18.70
2022-11-30T11:01:09.708Z,19.30
2022-11-30T11:02:09.825Z,19.50
2022-11-30T11:03:09.989Z,19.50
2022-11-30T11:04:10.163Z,19.60
2022-11-30T11:05:10.295Z,19.40
2022-11-30T11:06:10.507Z,19.70
2022-11-30T11:07:10.716Z,18.90
2022-11-30T11:08:10.832Z,19.40
2022-11-30T11:09:10.970Z,18.40
2022-11-30T11:10:11.139Z,18.30
2022-11-30T11:11:11.333Z,18.50
2022-11-30T11:12:11.483Z,18.50
2022-11-30T11:13:11.662Z,18.10
2022-11-30T11:14:11.841Z,18.60
2022-11-30T11:15:12.032Z,18.50
2022-11-30T11:16:12.235Z,18.30
2022-11-30T11:17:12.367Z,19.00
2022-11-30T11:18:12.512Z,17.80
2022-11-30T11:19:12.696Z,18.30
2022-11-30T11:20:12.873Z,18.20
2022-11-30T11:21:13.071Z,18.80
2022-11-30T11:22:13.193Z,18.30
2022-11-30T11:23:13.376Z,18.80
2022-11-30T11:24:13.555Z,19.00
2022-11-30T11:25:13.731Z,19.30
2022-11-30T11:26:13.922Z,18.60
2022-11-30T11:27:14.080Z,18.50
2022-11-30T11:28:14.252Z,18.50
2022-11-30T11:29:14.432Z,18.90
2022-11-30T11:30:14.605Z,18.60
2022-11-30T11:31:14.844Z,15.10
2022-11-30T11:32:14.945Z,15.70
2022-11-30T11:33:15.123Z,17.50
2022-11-30T11:34:15.321Z,18.20
2022-11-30T11:35:15.482Z,18.10
2022-11-30T11:36:15.912Z,18.20
2022-11-30T11:37:15.823Z,18.00
2022-11-30T11:38:15.999Z,19.40
2022-11-30T11:39:16.186Z,18.30
2022-11-30T11:40:16.357Z,19.70
2022-11-30T11:41:16.541Z,20.70
2022-11-30T11:42:20.628Z,20.70
2022-11-30T11:43:17.852Z,20.50
2022-11-30T11:44:17.004Z,22.90
2022-11-30T11:45:17.190Z,24.20
2022-11-30T11:46:17.382Z,22.40
2022-11-30T11:47:17.508Z,22.20
2022-11-30T11:48:17.684Z,23.60
2022-11-30T11:49:17.857Z,23.10
2022-11-30T11:50:27.169Z,20.80
2022-11-30T11:51:19.236Z,22.60
2022-11-30T11:52:18.354Z,22.40
2022-11-30T11:53:18.622Z,22.50
2022-11-30T11:54:18.741Z,22.80
2022-11-30T11:55:18.876Z,22.60
2022-11-30T11:56:19.039Z,22.00
2022-11-30T11:57:19.215Z,23.30
2022-11-30T11:58:19.355Z,24.40
2022-11-30T11:59:19.535Z,23.80
2022-11-30T12:00:19.702Z,24.20
2022-11-30T12:02:21.176Z,24.60
2022-11-30T12:03:20.222Z,24.40
2022-11-30T12:04:20.463Z,25.10
2022-11-30T12:05:20.592Z,24.50
2022-11-30T12:06:20.761Z,23.90
2022-11-30T12:07:21.005Z,24.00
2022-11-30T12:08:21.091Z,24.30
2022-11-30T12:09:21.277Z,24.60
2022-11-30T12:10:50.522Z,23.70
2022-11-30T12:11:22.593Z,25.90
2022-11-30T12:12:21.753Z,24.40
2022-11-30T12:13:21.937Z,24.20
2022-11-30T12:14:22.103Z,24.70
2022-11-30T12:15:22.285Z,26.30
2022-11-30T12:16:22.451Z,26.20
2022-11-30T12:17:22.595Z,25.80
2022-11-30T12:18:24.408Z,25.40
2022-11-30T12:19:22.914Z,25.70
2022-11-30T12:20:23.104Z,24.70
2022-11-30T12:21:23.271Z,25.60
2022-11-30T12:22:23.414Z,27.10
2022-11-30T12:23:23.614Z,24.30
2022-11-30T12:24:23.776Z,26.40
2022-11-30T12:25:23.946Z,27.00
2022-11-30T12:26:24.124Z,26.50
2022-11-30T12:27:24.261Z,26.70
2022-11-30T12:28:24.451Z,26.30
2022-11-30T12:29:24.606Z,27.00
2022-11-30T12:30:24.768Z,26.70
2022-11-30T12:31:24.981Z,26.10
2022-11-30T12:32:25.108Z,26.90
2022-11-30T12:33:25.458Z,26.40
2022-11-30T12:34:25.480Z,28.70
2022-11-30T12:35:25.598Z,27.10
2022-11-30T12:36:25.748Z,27.40
2022-11-30T12:37:25.944Z,27.60
2022-11-30T12:38:26.091Z,27.00
2022-11-30T12:39:26.278Z,26.90
2022-11-30T12:40:26.434Z,27.60
2022-11-30T12:41:26.613Z,26.30
2022-11-30T12:42:26.799Z,27.00
2022-11-30T12:43:26.951Z,27.80
2022-11-30T12:44:27.105Z,28.40
2022-11-30T12:45:27.299Z,28.30
2022-11-30T12:46:27.566Z,28.10
2022-11-30T12:47:27.628Z,28.40
2022-11-30T12:48:27.969Z,27.60
2022-11-30T12:49:27.985Z,27.90
2022-11-30T12:50:28.155Z,27.70
2022-11-30T12:51:30.081Z,27.80
2022-11-30T12:52:28.463Z,27.80
2022-11-30T12:53:28.647Z,27.10
2022-11-30T12:54:28.834Z,27.00
2022-11-30T12:55:29.268Z,28.00
2022-11-30T12:56:29.175Z,27.90
2022-11-30T12:57:29.333Z,27.40
2022-11-30T12:58:29.599Z,26.20
2022-11-30T12:59:29.689Z,27.50